ADDS METAR Data INFO
IDs: Format: Raw Decoded Include TAF

Data at: 2240 UTC 11 Dec 2017

KLXT 112153Z AUTO 31021G30KT 10SM BKN055 10/M02 A3002 RMK AO2 PK WND 33038/2125 SLP169 T01001017
KLXT 112053Z AUTO 32023G32KT 10SM SCT065 12/M03 A2999 RMK AO2 PK WND 30035/2019 SLP158 T01221028 53010
KLXT 111953Z AUTO 31022G32KT 10SM CLR 13/M04 A2997 RMK AO2 PK WND 30037/1917 SLP151 T01331039
KLXT 111853Z AUTO 31026G32KT 10SM CLR 14/M04 A2995 RMK AO2 PK WND 31035/1833 SLP143 T01391044
KLXT 111753Z AUTO 30018G27KT 10SM CLR 12/M06 A2996 RMK AO2 PK WND 31029/1716 SLP147 T01171061 10122 20044 50004
KLXT 111653Z AUTO 29012G18KT 10SM CLR 09/M07 A2998 RMK AO2 SLP155 T00891072
KLXT 111553Z AUTO 28013G26KT 10SM CLR 09/M08 A2998 RMK AO2 PK WND 29026/1550 SLP153 T00941083
KLXT 111453Z AUTO 26010KT 10SM CLR 08/M08 A2995 RMK AO2 SLP143 T00781078 58010
KLXT 111353Z AUTO 25010KT 10SM CLR 05/M07 A2996 RMK AO2 SLP149 T00501072
KLXT 111253Z AUTO 26009KT 10SM CLR 05/M07 A2996 RMK AO2 SLP150 T00501067
KLXT 111153Z AUTO 24010KT 10SM CLR 04/M07 A2998 RMK AO2 SLP154 T00441067 10067 20033 56021
KLXT 111053Z AUTO 24008KT 10SM CLR 05/M07 A2999 RMK AO2 SLP158 T00501067
KLXT 110953Z AUTO 23007KT 10SM CLR 04/M07 A3000 RMK AO2 SLP163 T00441067
KLXT 110853Z AUTO 22008KT 10SM CLR 04/M06 A3004 RMK AO2 SLP175 T00441056 58026
KLXT 110753Z AUTO 22011KT 10SM CLR 03/M06 A3007 RMK AO2 SLP186 T00331056
KLXT 110653Z AUTO 21006KT 10SM CLR 05/M05 A3010 RMK AO2 SLP195 T00501050
KLXT 110553Z AUTO 22005KT 10SM CLR 06/M04 A3012 RMK AO2 SLP203 T00611044 10111 20044 401331028 58007
KLXT 110453Z AUTO 22005KT 10SM CLR 06/M04 A3014 RMK AO2 SLP209 T00561044
KLXT 110353Z AUTO 21004KT 10SM CLR 07/M04 A3014 RMK AO2 SLP210 T00721044
KLXT 110253Z AUTO 21003KT 10SM CLR 09/M04 A3014 RMK AO2 SLP212 T00891039 50002
KLXT 110153Z AUTO 25003KT 10SM CLR 09/M04 A3015 RMK AO2 SLP215 T00891044
KLXT 110053Z AUTO 26004KT 10SM CLR 09/M05 A3014 RMK AO2 SLP211 T00891050
KLXT 102353Z AUTO 28004KT 10SM CLR 11/M04 A3014 RMK AO2 SLP210 T01061044 10133 20100 51013
KLXT 102253Z AUTO 29008KT 10SM CLR 11/M04 A3013 RMK AO2 SLP207 T01111044
KLXT 102153Z AUTO 29010KT 10SM CLR 13/M04 A3011 RMK AO2 SLP201 T01331039
KLXT 102053Z AUTO 30012KT 10SM CLR 13/M03 A3010 RMK AO2 SLP196 T01331033 55005
KLXT 101953Z AUTO 29011KT 10SM CLR 13/M03 A3009 RMK AO2 SLP195 T01281033
KLXT 101853Z AUTO 31016KT 10SM CLR 12/M04 A3011 RMK AO2 SLP201 T01221039
KLXT 101753Z AUTO 29009G18KT 10SM CLR 11/M04 A3011 RMK AO2 SLP203 T01061039 10106 20000 50003
KLXT 101653Z AUTO 32015KT 10SM CLR 09/M04 A3012 RMK AO2 SLP208 T00891044
KLXT 101553Z AUTO 29012G20KT 10SM CLR 07/M04 A3012 RMK AO2 SLP205 T00721044
KLXT 101453Z AUTO 28007KT 10SM CLR 03/M05 A3010 RMK AO2 SLP201 T00331050 53012
KLXT 101353Z AUTO 26009KT 10SM CLR 01/M06 A3008 RMK AO2 SLP194 T00111056
KLXT 101253Z AUTO 25010KT 10SM CLR 01/M06 A3007 RMK AO2 SLP191 T00111056
KLXT 101153Z AUTO 25010KT 10SM CLR 01/M06 A3007 RMK AO2 SLP190 T00061056 10011 21028 55011
KLXT 101053Z AUTO 24011KT 10SM CLR 00/M06 A3005 RMK AO2 SLP186 T00001056